Time;durP1;ratioP1;P1;durP2;ratioP2;P2;SDS_P1;SDS_P2;PMS_P1;PMS_P2;Temp;Humidity;BMP_temperature;BMP_pressure;BME280_temperature;BME280_humidity;BME280_pressure;Samples;Min_cycle;Max_cycle;Signal;HPM_P1;HPM_P2
2022/01/31 00:02:19;;;;;;;;;;;;;;;3.04;90.69;101271.28;2568278;30;137223;-40
2022/01/31 00:04:47;;;;;;;;;;;;;;;3.12;90.26;101263.25;2569120;30;138361;-40
2022/01/31 00:07:15;;;;;;;;;;;;;;;3.07;89.83;101234.09;2568721;30;137259;-40
2022/01/31 00:09:45;;;;;;;;;;;;;;;3.08;89.10;101216.03;2568815;30;138230;-40
2022/01/31 00:12:16;;;;;;;;;;;;;;;3.02;89.32;101207.56;2567324;30;137985;-40
2022/01/31 00:14:48;;;;;;;;;;;;;;;2.95;89.39;101216.41;2568841;30;138150;-40
2022/01/31 00:17:17;;;;;;;;;;;;;;;3.01;89.61;101231.97;2568000;30;137248;-40
2022/01/31 00:19:45;;;;;;;;;;;;;;;2.98;89.35;101240.38;2564701;38;138422;-40
2022/01/31 00:22:13;;;;;;;;;;;;;;;3.04;89.43;101244.31;2568529;30;137967;-40
2022/01/31 00:24:41;;;;;;;;;;;;;;;3.03;89.97;101243.44;2568278;30;139389;-40
2022/01/31 00:27:09;;;;;;;;;;;;;;;3.05;89.88;101229.84;2568340;30;137443;-40
2022/01/31 00:29:37;;;;;;;;;;;;;;;3.06;89.50;101221.59;2569216;30;139138;-40
2022/01/31 00:32:05;;;;;;;;;;;;;;;3.04;90.21;101201.19;2568239;30;138072;-40
2022/01/31 00:34:33;;;;;;;;;;;;;;;3.02;90.71;101190.53;2569647;30;138470;-40
2022/01/31 00:37:01;;;;;;;;;;;;;;;3.05;89.71;101184.84;2568440;30;137268;-40
2022/01/31 00:39:33;;;;;;;;;;;;;;;3.03;89.65;101184.13;2567940;30;140075;-40
2022/01/31 00:42:02;;;;;;;;;;;;;;;2.99;90.53;101171.97;2568736;30;137048;-40
2022/01/31 00:44:42;;;;;;;;;;;;;;;3.06;90.13;101161.44;2565647;30;138314;-40
2022/01/31 00:47:20;;;;;;;;;;;;;;;3.10;91.12;101154.72;2566911;30;137377;-40
2022/01/31 00:49:54;;;;;;;;;;;;;;;3.15;91.08;101155.09;2569422;30;138022;-40
2022/01/31 00:52:22;;;;;;;;;;;;;;;3.22;90.13;101140.00;2568012;30;138234;-40
2022/01/31 00:54:50;;;;;;;;;;;;;;;3.22;90.58;101126.53;2567706;30;137745;-40
2022/01/31 00:57:17;;;;;;;;;;;;;;;3.26;90.64;101105.47;2567628;30;137515;-40
2022/01/31 00:59:49;;;;;;;;;;;;;;;3.30;90.26;101104.13;2569168;30;138530;-40
2022/01/31 01:02:23;;;;;;;;;;;;;;;3.34;90.16;101088.50;2569118;30;137267;-40
2022/01/31 01:04:51;;;;;;;;;;;;;;;3.34;90.54;101067.78;2569275;30;139080;-40
2022/01/31 01:07:22;;;;;;;;;;;;;;;3.33;90.31;101058.00;2567728;30;138790;-40
2022/01/31 01:09:50;;;;;;;;;;;;;;;3.31;90.42;101047.34;2567359;30;138151;-40
2022/01/31 01:12:22;;;;;;;;;;;;;;;3.35;90.72;101033.53;2567387;30;137948;-40
2022/01/31 01:14:49;;;;;;;;;;;;;;;3.41;90.21;101030.19;2567365;30;139048;-40
2022/01/31 01:17:18;;;;;;;;;;;;;;;3.40;89.80;101013.19;2568493;30;136858;-40
2022/01/31 01:19:46;;;;;;;;;;;;;;;3.37;90.25;101009.97;2568338;30;140078;-40
2022/01/31 01:22:13;;;;;;;;;;;;;;;3.36;90.97;100975.91;2567715;30;138563;-38
2022/01/31 01:24:41;;;;;;;;;;;;;;;3.35;90.92;100969.69;2568627;30;138420;-38
2022/01/31 01:27:10;;;;;;;;;;;;;;;3.37;90.93;100956.00;2567081;30;137001;-38
2022/01/31 01:29:40;;;;;;;;;;;;;;;3.35;91.34;100934.63;2566356;30;140253;-38
2022/01/31 01:32:09;;;;;;;;;;;;;;;3.40;90.89;100936.81;2568026;30;137096;-38
2022/01/31 01:34:37;;;;;;;;;;;;;;;3.43;91.24;100915.75;2568066;30;139493;-38
2022/01/31 01:37:06;;;;;;;;;;;;;;;3.43;90.87;100906.81;2568110;30;138516;-38
2022/01/31 01:39:33;;;;;;;;;;;;;;;3.47;90.98;100900.09;2566287;30;137373;-38
2022/01/31 01:42:02;;;;;;;;;;;;;;;3.53;90.91;100885.09;2567708;30;137800;-38
2022/01/31 01:44:40;;;;;;;;;;;;;;;3.51;90.65;100876.31;2567024;30;138455;-38
2022/01/31 01:47:11;;;;;;;;;;;;;;;3.52;90.40;100868.06;2567423;30;137028;-38
2022/01/31 01:49:39;;;;;;;;;;;;;;;3.54;90.81;100843.59;2567407;30;138295;-38
2022/01/31 01:52:07;;;;;;;;;;;;;;;3.51;90.91;100836.72;2567417;30;137220;-38
2022/01/31 01:54:35;;;;;;;;;;;;;;;3.54;91.90;100822.88;2565837;30;139910;-38
2022/01/31 01:57:03;;;;;;;;;;;;;;;3.48;91.43;100811.91;2568400;30;137066;-38
2022/01/31 01:59:36;;;;;;;;;;;;;;;3.51;92.19;100815.13;2567707;30;138151;-38
2022/01/31 02:02:22;;;;;;;;;;;;;;;3.60;91.81;100800.63;2567077;30;138359;-38
2022/01/31 02:04:50;;;;;;;;;;;;;;;3.56;91.82;100780.41;2567253;30;140540;-38
2022/01/31 02:07:33;;;;;;;;;;;;;;;3.57;93.34;100763.19;2567264;30;138365;-38
2022/01/31 02:10:04;;;;;;;;;;;;;;;3.56;94.71;100745.31;2568317;30;138112;-38
2022/01/31 02:12:37;;;;;;;;;;;;;;;3.52;95.31;100735.88;2566529;30;136922;-38
2022/01/31 02:15:06;;;;;;;;;;;;;;;3.52;96.78;100732.31;2567858;30;139832;-38
2022/01/31 02:18:06;;;;;;;;;;;;;;;3.47;96.17;100740.94;2566252;30;136859;-38
2022/01/31 02:20:35;;;;;;;;;;;;;;;3.42;96.86;100727.09;2564887;30;139575;-38
2022/01/31 02:23:05;;;;;;;;;;;;;;;3.41;98.41;100730.78;2567083;30;138440;-38
2022/01/31 02:25:51;;;;;;;;;;;;;;;3.36;98.76;100722.38;2567643;30;138229;-38
2022/01/31 02:28:44;;;;;;;;;;;;;;;3.37;100.00;100705.19;2565500;30;138313;-38
2022/01/31 02:31:12;;;;;;;;;;;;;;;3.34;100.00;100697.44;2566553;30;139605;-38
2022/01/31 02:33:42;;;;;;;;;;;;;;;3.30;100.00;100686.97;2568666;30;138941;-38
2022/01/31 02:36:10;;;;;;;;;;;;;;;3.23;100.00;100677.88;2567617;30;138248;-38
2022/01/31 02:38:38;;;;;;;;;;;;;;;3.19;100.00;100667.59;2568830;30;137952;-38
2022/01/31 02:41:07;;;;;;;;;;;;;;;3.12;100.00;100656.63;2568323;30;140058;-38
2022/01/31 02:43:35;;;;;;;;;;;;;;;3.09;100.00;100656.97;2569121;30;138638;-38
2022/01/31 02:46:07;;;;;;;;;;;;;;;3.06;100.00;100652.78;2567045;30;139680;-38
2022/01/31 02:48:36;;;;;;;;;;;;;;;3.08;100.00;100650.75;2568765;30;137558;-38
2022/01/31 02:51:09;;;;;;;;;;;;;;;3.14;100.00;100641.13;2567601;30;138537;-38
2022/01/31 02:53:41;;;;;;;;;;;;;;;3.10;100.00;100629.84;2568141;30;137903;-38
2022/01/31 02:56:09;;;;;;;;;;;;;;;3.10;100.00;100620.91;2568369;30;138432;-38
2022/01/31 02:58:38;;;;;;;;;;;;;;;3.09;100.00;100611.13;2567080;30;137742;-38
2022/01/31 03:01:07;;;;;;;;;;;;;;;3.04;100.00;100608.09;2566000;30;138818;-38
2022/01/31 03:03:39;;;;;;;;;;;;;;;3.01;100.00;100604.75;2568190;30;138450;-38
2022/01/31 03:06:07;;;;;;;;;;;;;;;2.97;100.00;100603.41;2569073;30;140110;-38
2022/01/31 03:08:36;;;;;;;;;;;;;;;2.94;100.00;100589.41;2569278;30;136959;-38
2022/01/31 03:11:30;;;;;;;;;;;;;;;2.87;100.00;100578.44;2567608;30;137069;-38
2022/01/31 03:14:05;;;;;;;;;;;;;;;2.83;100.00;100580.66;2569003;30;137170;-38
2022/01/31 03:16:40;;;;;;;;;;;;;;;2.81;100.00;100571.91;2569861;30;139923;-38
2022/01/31 03:19:21;;;;;;;;;;;;;;;2.80;100.00;100563.97;2565914;30;137197;-38
2022/01/31 03:21:54;;;;;;;;;;;;;;;2.75;100.00;100566.31;2564688;30;138649;-38
2022/01/31 03:24:22;;;;;;;;;;;;;;;2.74;100.00;100554.69;2568276;30;138563;-38
2022/01/31 03:26:50;;;;;;;;;;;;;;;2.75;100.00;100553.69;2568461;30;138384;-38
2022/01/31 03:29:18;;;;;;;;;;;;;;;2.72;100.00;100544.09;2568222;30;138164;-38
2022/01/31 03:31:46;;;;;;;;;;;;;;;2.77;100.00;100542.75;2567893;30;137339;-38
2022/01/31 03:34:14;;;;;;;;;;;;;;;2.78;100.00;100528.28;2567427;30;137010;-38
2022/01/31 03:36:43;;;;;;;;;;;;;;;2.78;100.00;100518.31;2567414;30;138052;-38
2022/01/31 03:39:16;;;;;;;;;;;;;;;2.78;100.00;100506.72;2567539;30;136981;-38
2022/01/31 03:41:44;;;;;;;;;;;;;;;2.80;100.00;100505.53;2565805;30;139686;-38
2022/01/31 03:44:12;;;;;;;;;;;;;;;2.81;100.00;100500.97;2568426;30;138811;-38
2022/01/31 03:46:40;;;;;;;;;;;;;;;2.84;100.00;100493.41;2567383;30;137756;-38
2022/01/31 03:49:08;;;;;;;;;;;;;;;2.83;100.00;100494.44;2567390;30;136960;-38
2022/01/31 03:51:45;;;;;;;;;;;;;;;2.83;100.00;100491.72;2567309;30;139195;-38
2022/01/31 03:54:17;;;;;;;;;;;;;;;2.88;100.00;100483.97;2568250;30;137133;-38
2022/01/31 03:56:45;;;;;;;;;;;;;;;2.90;100.00;100481.09;2564219;38;140326;-38
2022/01/31 03:59:33;;;;;;;;;;;;;;;2.92;100.00;100471.00;2566150;30;138236;-38
2022/01/31 04:02:04;;;;;;;;;;;;;;;2.98;100.00;100472.16;2565762;30;139866;-38
2022/01/31 04:04:32;;;;;;;;;;;;;;;3.02;100.00;100463.56;2569870;30;136694;-38
2022/01/31 04:07:00;;;;;;;;;;;;;;;3.07;100.00;100449.59;2567015;30;136777;-38
2022/01/31 04:09:28;;;;;;;;;;;;;;;3.14;100.00;100436.22;2568921;30;136705;-38
2022/01/31 04:11:56;;;;;;;;;;;;;;;3.15;100.00;100443.31;2568882;30;137219;-38
2022/01/31 04:14:26;;;;;;;;;;;;;;;3.17;100.00;100449.34;2566597;30;136934;-38
2022/01/31 04:16:56;;;;;;;;;;;;;;;3.20;100.00;100451.75;2566213;30;137660;-38
2022/01/31 04:19:24;;;;;;;;;;;;;;;3.23;100.00;100446.00;2568741;30;136721;-38
2022/01/31 04:21:51;;;;;;;;;;;;;;;3.23;100.00;100439.75;2567820;30;137557;-38
2022/01/31 04:24:23;;;;;;;;;;;;;;;3.28;100.00;100438.22;2566880;30;137174;-38
2022/01/31 04:26:59;;;;;;;;;;;;;;;3.34;100.00;100438.53;2568428;30;137026;-38
2022/01/31 04:29:30;;;;;;;;;;;;;;;3.35;100.00;100429.44;2568264;30;136826;-38
2022/01/31 04:31:58;;;;;;;;;;;;;;;3.31;100.00;100427.09;2566698;30;137032;-38
2022/01/31 04:34:26;;;;;;;;;;;;;;;3.37;100.00;100424.69;2567330;30;137534;-38
2022/01/31 04:36:53;;;;;;;;;;;;;;;3.38;100.00;100426.38;2567969;30;137153;-37
2022/01/31 04:39:21;;;;;;;;;;;;;;;3.42;100.00;100430.41;2568037;30;136754;-38
2022/01/31 04:41:49;;;;;;;;;;;;;;;3.42;100.00;100433.94;2568604;30;138701;-38
2022/01/31 04:44:18;;;;;;;;;;;;;;;3.45;100.00;100430.91;2568526;30;137642;-38
2022/01/31 04:46:49;;;;;;;;;;;;;;;3.48;100.00;100434.25;2568484;30;137556;-38
2022/01/31 04:49:18;;;;;;;;;;;;;;;3.49;100.00;100422.44;2567223;30;137426;-38
2022/01/31 04:51:47;;;;;;;;;;;;;;;3.53;100.00;100424.63;2568305;30;136873;-38
2022/01/31 04:54:15;;;;;;;;;;;;;;;3.54;100.00;100420.91;2568222;30;136722;-38
2022/01/31 04:56:44;;;;;;;;;;;;;;;3.59;100.00;100413.13;2565494;30;137052;-38
2022/01/31 04:59:11;;;;;;;;;;;;;;;3.62;100.00;100421.88;2568441;30;136974;-38
2022/01/31 05:01:42;;;;;;;;;;;;;;;3.72;100.00;100409.03;2567985;30;137039;-38
2022/01/31 05:04:10;;;;;;;;;;;;;;;3.73;100.00;100411.53;2569847;30;136927;-38
2022/01/31 05:06:40;;;;;;;;;;;;;;;3.77;100.00;100409.34;2568839;30;137057;-38
2022/01/31 05:09:09;;;;;;;;;;;;;;;3.79;100.00;100407.28;2567933;30;136761;-38
2022/01/31 05:11:37;;;;;;;;;;;;;;;3.82;100.00;100398.84;2567892;30;137148;-38
2022/01/31 05:14:05;;;;;;;;;;;;;;;3.79;100.00;100393.81;2569672;30;137083;-38
2022/01/31 05:16:33;;;;;;;;;;;;;;;3.88;100.00;100384.63;2568297;30;137181;-38
2022/01/31 05:19:04;;;;;;;;;;;;;;;3.92;100.00;100378.88;2567112;30;136717;-38
2022/01/31 05:21:31;;;;;;;;;;;;;;;3.94;100.00;100387.63;2568128;30;137193;-38
2022/01/31 05:23:59;;;;;;;;;;;;;;;3.89;100.00;100389.00;2569195;30;137004;-38
2022/01/31 05:26:27;;;;;;;;;;;;;;;3.95;100.00;100367.69;2566510;30;137594;-38
2022/01/31 05:28:55;;;;;;;;;;;;;;;3.99;100.00;100372.56;2568967;30;137141;-38
2022/01/31 05:31:23;;;;;;;;;;;;;;;4.04;100.00;100374.75;2568148;30;138028;-38
2022/01/31 05:33:51;;;;;;;;;;;;;;;4.05;100.00;100368.31;2568877;30;137092;-38
2022/01/31 05:36:20;;;;;;;;;;;;;;;4.05;100.00;100368.31;2569681;30;137105;-38
2022/01/31 05:38:48;;;;;;;;;;;;;;;4.11;100.00;100369.44;2568176;30;136816;-38
2022/01/31 05:41:20;;;;;;;;;;;;;;;4.08;100.00;100367.09;2567893;30;137163;-38
2022/01/31 05:43:48;;;;;;;;;;;;;;;4.11;100.00;100367.59;2569033;30;136774;-38
2022/01/31 05:46:17;;;;;;;;;;;;;;;4.14;100.00;100364.53;2566717;30;137048;-38
2022/01/31 05:48:44;;;;;;;;;;;;;;;4.12;100.00;100363.03;2568597;30;136716;-38
2022/01/31 05:51:17;;;;;;;;;;;;;;;4.14;100.00;100363.69;2566487;30;137056;-38
2022/01/31 05:53:45;;;;;;;;;;;;;;;4.14;100.00;100366.41;2566826;30;136757;-38
2022/01/31 05:56:13;;;;;;;;;;;;;;;4.12;100.00;100363.88;2567817;30;136842;-38
2022/01/31 05:58:42;;;;;;;;;;;;;;;4.19;100.00;100364.00;2568408;30;136928;-38
2022/01/31 06:01:10;;;;;;;;;;;;;;;4.18;100.00;100351.50;2568312;30;137721;-38
2022/01/31 06:03:39;;;;;;;;;;;;;;;4.20;100.00;100340.50;2566163;30;137128;-38
2022/01/31 06:06:07;;;;;;;;;;;;;;;4.20;100.00;100335.09;2567534;30;137962;-38
2022/01/31 06:08:34;;;;;;;;;;;;;;;4.17;100.00;100339.03;2567751;30;136790;-38
2022/01/31 06:11:02;;;;;;;;;;;;;;;4.15;100.00;100331.09;2565677;30;137208;-38
2022/01/31 06:13:33;;;;;;;;;;;;;;;4.12;100.00;100334.16;2566254;30;136940;-38
2022/01/31 06:16:00;;;;;;;;;;;;;;;4.19;100.00;100326.19;2567308;30;137316;-38
2022/01/31 06:18:28;;;;;;;;;;;;;;;4.18;100.00;100327.19;2568312;30;137054;-38
2022/01/31 06:20:56;;;;;;;;;;;;;;;4.15;100.00;100317.59;2568117;30;139025;-38
2022/01/31 06:23:24;;;;;;;;;;;;;;;4.18;100.00;100317.22;2568661;30;137073;-38
2022/01/31 06:25:52;;;;;;;;;;;;;;;4.17;100.00;100320.94;2569689;30;138455;-38
2022/01/31 06:28:21;;;;;;;;;;;;;;;4.18;100.00;100317.22;2568938;30;136969;-38
2022/01/31 06:30:57;;;;;;;;;;;;;;;4.20;100.00;100319.75;2567654;30;140066;-38
2022/01/31 06:33:25;;;;;;;;;;;;;;;4.22;100.00;100319.56;2568672;30;138447;-38
2022/01/31 06:35:53;;;;;;;;;;;;;;;4.20;100.00;100308.09;2568043;30;139250;-38
2022/01/31 06:38:21;;;;;;;;;;;;;;;4.22;100.00;100308.75;2566265;30;136730;-38
2022/01/31 06:40:49;;;;;;;;;;;;;;;4.18;100.00;100303.72;2567717;30;138511;-38
2022/01/31 06:43:17;;;;;;;;;;;;;;;4.14;100.00;100307.81;2567242;30;138252;-38
2022/01/31 06:45:45;;;;;;;;;;;;;;;4.13;100.00;100325.03;2569767;30;139257;-38
2022/01/31 06:48:12;;;;;;;;;;;;;;;4.09;100.00;100326.44;2569449;30;137230;-38
2022/01/31 06:50:40;;;;;;;;;;;;;;;4.10;100.00;100325.41;2567159;30;138323;-38
2022/01/31 06:53:08;;;;;;;;;;;;;;;4.04;100.00;100326.16;2566611;30;137020;-38
2022/01/31 06:55:37;;;;;;;;;;;;;;;3.93;100.00;100356.25;2568954;30;138414;-38
2022/01/31 06:58:05;;;;;;;;;;;;;;;3.72;100.00;100350.50;2567246;30;137110;-38
2022/01/31 07:00:32;;;;;;;;;;;;;;;3.49;100.00;100366.66;2567769;30;138312;-37
2022/01/31 07:03:02;;;;;;;;;;;;;;;3.38;100.00;100377.84;2570331;30;138028;-38
2022/01/31 07:05:31;;;;;;;;;;;;;;;3.30;100.00;100376.88;2567136;30;138322;-38
2022/01/31 07:07:58;;;;;;;;;;;;;;;3.22;100.00;100382.31;2568609;30;138045;-38
2022/01/31 07:10:29;;;;;;;;;;;;;;;3.15;100.00;100357.03;2567936;30;139127;-37
2022/01/31 07:12:58;;;;;;;;;;;;;;;3.13;100.00;100327.56;2570474;30;137166;-38
2022/01/31 07:15:26;;;;;;;;;;;;;;;3.02;100.00;100318.00;2568196;30;138237;-38
2022/01/31 07:17:54;;;;;;;;;;;;;;;2.98;100.00;100319.38;2568495;30;137830;-38
2022/01/31 07:20:36;;;;;;;;;;;;;;;2.97;100.00;100328.47;2570596;30;138246;-38
2022/01/31 07:23:22;;;;;;;;;;;;;;;2.98;100.00;100313.13;2569662;30;137102;-40
2022/01/31 07:25:50;;;;;;;;;;;;;;;2.98;100.00;100311.31;2569010;30;138354;-40
2022/01/31 07:28:19;;;;;;;;;;;;;;;2.98;100.00;100303.22;2566011;30;137063;-40
2022/01/31 07:30:48;;;;;;;;;;;;;;;2.96;100.00;100297.16;2567647;30;139312;-40
2022/01/31 07:33:16;;;;;;;;;;;;;;;2.99;100.00;100294.13;2566388;30;137547;-40
2022/01/31 07:35:46;;;;;;;;;;;;;;;2.95;100.00;100303.56;2567468;30;137310;-40
2022/01/31 07:38:14;;;;;;;;;;;;;;;3.00;100.00;100306.56;2568573;30;137183;-40
2022/01/31 07:40:43;;;;;;;;;;;;;;;3.06;100.00;100296.09;2568602;30;137405;-40
2022/01/31 07:43:11;;;;;;;;;;;;;;;3.07;100.00;100293.25;2568395;30;137958;-40
2022/01/31 07:45:38;;;;;;;;;;;;;;;3.13;100.00;100303.31;2569957;30;138171;-40
2022/01/31 07:48:06;;;;;;;;;;;;;;;3.15;100.00;100305.81;2568760;30;137243;-40
2022/01/31 07:50:36;;;;;;;;;;;;;;;3.14;100.00;100309.53;2568407;30;138424;-40
2022/01/31 07:53:05;;;;;;;;;;;;;;;3.14;100.00;100318.47;2568403;30;137267;-40
2022/01/31 07:55:33;;;;;;;;;;;;;;;3.19;100.00;100314.41;2569073;30;137154;-40
2022/01/31 07:58:01;;;;;;;;;;;;;;;3.19;100.00;100312.56;2568647;30;137062;-40
2022/01/31 08:00:45;;;;;;;;;;;;;;;3.20;100.00;100327.72;2568886;30;138168;-40
2022/01/31 08:03:13;;;;;;;;;;;;;;;3.22;100.00;100311.34;2567969;30;136990;-40
2022/01/31 08:05:41;;;;;;;;;;;;;;;3.18;100.00;100324.31;2568710;30;137319;-40
2022/01/31 08:08:09;;;;;;;;;;;;;;;3.24;100.00;100325.50;2569037;30;137228;-40
2022/01/31 08:10:38;;;;;;;;;;;;;;;3.25;100.00;100319.06;2568743;30;138439;-40
2022/01/31 08:13:08;;;;;;;;;;;;;;;3.27;100.00;100328.69;2569115;30;137340;-40
2022/01/31 08:15:46;;;;;;;;;;;;;;;3.27;100.00;100331.38;2568724;30;138804;-40
2022/01/31 08:18:15;;;;;;;;;;;;;;;3.30;100.00;100328.31;2565372;30;137426;-40
2022/01/31 08:20:44;;;;;;;;;;;;;;;3.28;100.00;100327.66;2568606;30;138119;-40
2022/01/31 08:23:12;;;;;;;;;;;;;;;3.30;100.00;100325.63;2568730;30;137016;-40
2022/01/31 08:25:40;;;;;;;;;;;;;;;3.34;100.00;100325.28;2564652;30;138316;-40
2022/01/31 08:28:11;;;;;;;;;;;;;;;3.30;100.00;100316.69;2568434;30;137195;-40
2022/01/31 08:31:02;;;;;;;;;;;;;;;3.28;100.00;100306.09;2568314;30;138264;-40
2022/01/31 08:33:35;;;;;;;;;;;;;;;3.25;100.00;100298.38;2567232;30;139221;-40
2022/01/31 08:36:05;;;;;;;;;;;;;;;3.21;100.00;100307.81;2568732;30;138304;-40
2022/01/31 08:38:35;;;;;;;;;;;;;;;3.18;100.00;100291.97;2569098;30;136676;-40
2022/01/31 08:41:03;;;;;;;;;;;;;;;3.19;100.00;100296.38;2568979;30;139558;-40
2022/01/31 08:43:31;;;;;;;;;;;;;;;3.22;100.00;100297.88;2568944;30;137316;-40
2022/01/31 08:45:59;;;;;;;;;;;;;;;3.17;100.00;100291.16;2568293;30;137314;-40
2022/01/31 08:48:28;;;;;;;;;;;;;;;3.20;100.00;100295.38;2569139;30;137175;-40
2022/01/31 08:50:56;;;;;;;;;;;;;;;3.22;100.00;100285.25;2567939;30;137535;-40
2022/01/31 08:53:24;;;;;;;;;;;;;;;3.18;100.00;100297.38;2566397;30;137206;-40
2022/01/31 08:55:53;;;;;;;;;;;;;;;3.17;100.00;100301.94;2568247;30;139259;-40
2022/01/31 08:58:21;;;;;;;;;;;;;;;3.12;100.00;100290.00;2565852;30;137402;-40
2022/01/31 09:00:58;;;;;;;;;;;;;;;3.15;100.00;100300.41;2564819;30;138475;-40
2022/01/31 09:06:02;;;;;;;;;;;;;;;3.08;100.00;100284.13;2568541;30;138977;-40
2022/01/31 09:08:30;;;;;;;;;;;;;;;3.08;100.00;100280.59;2568882;30;137073;-40
2022/01/31 09:10:58;;;;;;;;;;;;;;;3.12;100.00;100290.00;2566753;30;138460;-40
2022/01/31 09:13:26;;;;;;;;;;;;;;;3.14;100.00;100285.25;2567696;30;136730;-40
2022/01/31 09:15:54;;;;;;;;;;;;;;;3.17;100.00;100279.50;2567554;30;138401;-40
2022/01/31 09:18:22;;;;;;;;;;;;;;;3.15;100.00;100282.41;2568713;30;138088;-40
2022/01/31 09:20:50;;;;;;;;;;;;;;;3.17;100.00;100274.13;2567854;30;137680;-40
2022/01/31 09:23:17;;;;;;;;;;;;;;;3.16;100.00;100267.91;2568391;30;137108;-40
2022/01/31 09:25:47;;;;;;;;;;;;;;;3.20;100.00;100263.00;2566668;30;138230;-40
2022/01/31 09:28:15;;;;;;;;;;;;;;;3.17;100.00;100261.50;2566705;30;137435;-40
2022/01/31 09:30:44;;;;;;;;;;;;;;;3.19;100.00;100266.72;2568312;30;138523;-40
2022/01/31 09:33:13;;;;;;;;;;;;;;;3.20;100.00;100264.84;2567803;30;137802;-40
2022/01/31 09:35:42;;;;;;;;;;;;;;;3.23;100.00;100254.56;2567541;30;137578;-40
2022/01/31 09:38:13;;;;;;;;;;;;;;;3.23;100.00;100253.72;2568431;30;137100;-40
2022/01/31 09:40:41;;;;;;;;;;;;;;;3.22;100.00;100247.50;2568712;30;138146;-40
2022/01/31 09:51:07;;;;;;;;;;;;;;;3.32;100.00;100260.75;2567030;30;139383;-40
2022/01/31 09:53:40;;;;;;;;;;;;;;;3.35;100.00;100256.84;2568923;30;137720;-40
2022/01/31 09:56:09;;;;;;;;;;;;;;;3.40;100.00;100257.13;2569174;30;138177;-40
2022/01/31 09:58:37;;;;;;;;;;;;;;;3.40;100.00;100254.44;2569722;30;137318;-40
2022/01/31 10:01:05;;;;;;;;;;;;;;;3.38;100.00;100264.56;2566691;30;138580;-40
2022/01/31 10:03:43;;;;;;;;;;;;;;;3.41;100.00;100258.81;2568379;30;137031;-40
2022/01/31 10:06:24;;;;;;;;;;;;;;;3.41;100.00;100277.69;2569353;30;139316;-40
2022/01/31 10:09:18;;;;;;;;;;;;;;;3.41;100.00;100275.84;2569700;30;137202;-40
2022/01/31 10:11:50;;;;;;;;;;;;;;;3.42;100.00;100269.44;2568610;30;137888;-40
2022/01/31 10:17:07;;;;;;;;;;;;;;;3.49;100.00;100280.34;2567872;30;139218;-40
2022/01/31 10:19:49;;;;;;;;;;;;;;;3.45;100.00;100281.72;2567520;30;137262;-40
2022/01/31 10:22:18;;;;;;;;;;;;;;;3.47;100.00;100292.31;2569068;30;138328;-40
2022/01/31 10:24:47;;;;;;;;;;;;;;;3.52;100.00;100295.31;2567970;30;137012;-40
2022/01/31 10:27:17;;;;;;;;;;;;;;;3.55;100.00;100306.59;2566019;30;138455;-40
2022/01/31 10:29:47;;;;;;;;;;;;;;;3.54;100.00;100296.84;2569305;30;136642;-40
2022/01/31 10:32:17;;;;;;;;;;;;;;;3.55;100.00;100311.13;2567032;30;138239;-40
2022/01/31 10:34:47;;;;;;;;;;;;;;;3.54;100.00;100313.00;2568564;30;137210;-40
2022/01/31 10:37:17;;;;;;;;;;;;;;;3.55;100.00;100325.50;2568953;30;137155;-40
2022/01/31 10:51:14;;;;;;;;;;;;;;;3.74;100.00;100336.84;2568480;30;137872;-40
2022/01/31 10:53:50;;;;;;;;;;;;;;;3.71;100.00;100339.88;2568111;30;137847;-40
2022/01/31 10:56:18;;;;;;;;;;;;;;;3.75;100.00;100343.91;2568317;30;137140;-40
2022/01/31 10:58:59;;;;;;;;;;;;;;;3.71;100.00;100345.25;2568128;30;137878;-40
2022/01/31 11:01:27;;;;;;;;;;;;;;;3.71;100.00;100346.13;2567867;30;137071;-40
2022/01/31 11:04:15;;;;;;;;;;;;;;;3.72;100.00;100344.28;2569183;30;138431;-40
2022/01/31 11:06:45;;;;;;;;;;;;;;;3.70;100.00;100349.84;2568831;30;137141;-40
2022/01/31 11:09:15;;;;;;;;;;;;;;;3.68;100.00;100353.72;2567657;30;138767;-40
2022/01/31 11:11:44;;;;;;;;;;;;;;;3.68;100.00;100351.03;2569125;30;137334;-40
2022/01/31 11:14:12;;;;;;;;;;;;;;;3.71;100.00;100335.31;2568192;30;138920;-40
2022/01/31 11:16:46;;;;;;;;;;;;;;;3.71;100.00;100356.06;2568764;30;136763;-40
2022/01/31 11:19:16;;;;;;;;;;;;;;;3.66;100.00;100361.16;2569038;30;138608;-40
2022/01/31 11:21:46;;;;;;;;;;;;;;;3.71;100.00;100370.41;2568249;30;138074;-40
2022/01/31 11:24:19;;;;;;;;;;;;;;;3.74;100.00;100377.31;2568290;30;137085;-40
2022/01/31 11:26:48;;;;;;;;;;;;;;;3.76;100.00;100358.22;2568608;30;136953;-40
2022/01/31 11:29:17;;;;;;;;;;;;;;;3.75;100.00;100381.69;2568300;30;139101;-40
2022/01/31 11:31:45;;;;;;;;;;;;;;;3.74;100.00;100375.44;2568034;30;136996;-40
2022/01/31 11:34:13;;;;;;;;;;;;;;;3.76;100.00;100375.28;2568760;30;139671;-40
2022/01/31 11:36:42;;;;;;;;;;;;;;;3.74;100.00;100383.53;2567779;30;137060;-40
2022/01/31 11:39:11;;;;;;;;;;;;;;;3.81;100.00;100391.75;2569030;30;139072;-40
2022/01/31 11:41:44;;;;;;;;;;;;;;;3.82;100.00;100397.97;2568441;30;137562;-40
2022/01/31 11:44:29;;;;;;;;;;;;;;;3.87;100.00;100401.84;2568810;30;138455;-40
2022/01/31 11:46:58;;;;;;;;;;;;;;;3.88;100.00;100411.63;2568686;30;136997;-40
2022/01/31 11:49:42;;;;;;;;;;;;;;;3.93;100.00;100404.84;2568312;30;138512;-40
2022/01/31 11:52:10;;;;;;;;;;;;;;;3.99;100.00;100418.47;2568279;30;137762;-40
2022/01/31 11:54:46;;;;;;;;;;;;;;;4.03;100.00;100421.66;2568945;30;138345;-40
2022/01/31 11:57:16;;;;;;;;;;;;;;;4.03;100.00;100424.34;2568261;30;137335;-40
2022/01/31 11:59:44;;;;;;;;;;;;;;;3.99;100.00;100426.56;2568962;30;138385;-40
2022/01/31 12:02:12;;;;;;;;;;;;;;;4.05;100.00;100437.66;2567737;30;136881;-40
2022/01/31 12:04:44;;;;;;;;;;;;;;;4.02;100.00;100436.19;2567782;30;140542;-40
2022/01/31 12:07:31;;;;;;;;;;;;;;;4.07;100.00;100447.28;2569369;30;136867;-40
2022/01/31 12:10:00;;;;;;;;;;;;;;;4.14;100.00;100442.00;2568721;30;137926;-40
2022/01/31 12:12:36;;;;;;;;;;;;;;;4.06;100.00;100445.59;2567344;30;137136;-40
2022/01/31 12:15:30;;;;;;;;;;;;;;;4.13;100.00;100443.03;2568484;30;138288;-40
2022/01/31 12:18:28;;;;;;;;;;;;;;;4.08;100.00;100448.09;2569283;30;136721;-40
2022/01/31 12:24:01;;;;;;;;;;;;;;;4.09;100.00;100471.38;2569108;30;138180;-40
2022/01/31 12:26:33;;;;;;;;;;;;;;;4.10;100.00;100473.06;2567867;30;137225;-40
2022/01/31 12:29:09;;;;;;;;;;;;;;;4.07;100.00;100487.78;2568568;30;137770;-40
2022/01/31 12:31:36;;;;;;;;;;;;;;;4.08;100.00;100484.06;2568482;30;136702;-40
2022/01/31 12:34:31;;;;;;;;;;;;;;;4.08;100.00;100481.34;2567792;30;137571;-40
2022/01/31 12:37:04;;;;;;;;;;;;;;;4.07;100.00;100481.50;2565705;30;139107;-40
2022/01/31 12:39:40;;;;;;;;;;;;;;;4.04;100.00;100474.63;2568382;30;137835;-40
2022/01/31 12:45:33;;;;;;;;;;;;;;;3.95;100.00;100484.63;2568217;30;137458;-40
2022/01/31 12:48:09;;;;;;;;;;;;;;;3.99;100.00;100517.53;2567528;30;138216;-40
2022/01/31 12:50:38;;;;;;;;;;;;;;;3.96;100.00;100507.06;2568696;30;137379;-40
2022/01/31 12:56:06;;;;;;;;;;;;;;;4.00;100.00;100511.94;2568022;30;137241;-40
2022/01/31 12:58:33;;;;;;;;;;;;;;;3.97;100.00;100506.03;2568182;30;139081;-40
2022/01/31 13:01:30;;;;;;;;;;;;;;;3.98;100.00;100510.44;2568098;30;138072;-40
2022/01/31 13:04:04;;;;;;;;;;;;;;;3.99;100.00;100528.31;2568990;30;138213;-40
2022/01/31 13:06:31;;;;;;;;;;;;;;;3.99;100.00;100525.63;2567567;30;136788;-40
2022/01/31 13:09:02;;;;;;;;;;;;;;;4.00;100.00;100521.91;2568691;30;138402;-40
2022/01/31 13:11:33;;;;;;;;;;;;;;;4.01;100.00;100519.00;2568596;30;138409;-40
2022/01/31 13:14:06;;;;;;;;;;;;;;;3.94;100.00;100530.69;2566972;30;138430;-40
2022/01/31 13:17:10;;;;;;;;;;;;;;;3.94;100.00;100527.97;2569212;30;136805;-40
2022/01/31 13:19:48;;;;;;;;;;;;;;;3.94;100.00;100538.78;2567940;30;138373;-40
2022/01/31 13:23:56;;;;;;;;;;;;;;;3.95;100.00;100541.31;2563990;30;137317;-38